Time;durP1;ratioP1;P1;durP2;ratioP2;P2;SDS_P1;SDS_P2;PMS_P1;PMS_P2;Temp;Humidity;BMP_temperature;BMP_pressure;BME280_temperature;BME280_humidity;BME280_pressure;Samples;Min_cycle;Max_cycle;Signal;HPM_P1;HPM_P2
2022/02/16 00:04:57;;;;;;;5.20;2.80;;;5.70;99.90;;;;;;12615151;28;20056;-36
2022/02/16 00:10:58;;;;;;;6.00;2.85;;;5.70;99.90;;;;;;12615787;28;20094;-36
2022/02/16 00:17:01;;;;;;;4.05;2.53;;;5.80;99.90;;;;;;12616048;28;20485;-36
2022/02/16 00:23:03;;;;;;;4.10;2.45;;;5.70;99.90;;;;;;12594133;28;20051;-42
2022/02/16 00:29:05;;;;;;;5.78;2.28;;;5.70;99.90;;;;;;12615396;28;20147;-36
2022/02/16 00:35:08;;;;;;;4.97;2.38;;;5.70;99.90;;;;;;12611698;28;20063;-38
2022/02/16 00:41:09;;;;;;;5.25;2.65;;;5.70;99.90;;;;;;12610344;28;20143;-36
2022/02/16 00:47:12;;;;;;;3.53;2.45;;;5.80;99.90;;;;;;12614595;28;20051;-36
2022/02/16 00:53:14;;;;;;;5.53;2.40;;;5.70;99.90;;;;;;12607438;28;20142;-36
2022/02/16 00:59:16;;;;;;;3.10;2.13;;;5.80;99.90;;;;;;12615666;28;20078;-39
2022/02/16 01:05:18;;;;;;;4.43;2.20;;;5.80;99.90;;;;;;12621617;28;20583;-36
2022/02/16 01:11:21;;;;;;;3.72;1.98;;;5.80;99.90;;;;;;12609625;28;20130;-41
2022/02/16 01:17:24;;;;;;;3.05;2.10;;;5.80;99.90;;;;;;12610478;28;20044;-36
2022/02/16 01:23:26;;;;;;;3.40;2.00;;;5.90;99.90;;;;;;12618601;28;20048;-39
2022/02/16 01:29:28;;;;;;;3.70;1.73;;;5.90;99.90;;;;;;12608233;28;20727;-39
2022/02/16 01:35:30;;;;;;;3.30;2.00;;;5.90;99.90;;;;;;12611883;28;20052;-39
2022/02/16 01:41:32;;;;;;;2.78;1.60;;;5.90;99.90;;;;;;12611883;28;20851;-41
2022/02/16 01:47:38;;;;;;;2.45;1.38;;;5.90;99.90;;;;;;12609118;28;20055;-36
2022/02/16 01:53:41;;;;;;;2.80;1.37;;;6.00;99.90;;;;;;12614467;28;20062;-36
2022/02/16 01:59:44;;;;;;;3.63;1.52;;;6.00;99.90;;;;;;12620044;28;20060;-36
2022/02/16 02:05:50;;;;;;;2.40;1.60;;;6.00;99.90;;;;;;12610530;28;20052;-36
2022/02/16 02:11:52;;;;;;;2.30;1.40;;;6.00;99.90;;;;;;12605537;28;20131;-36
2022/02/16 02:17:54;;;;;;;2.40;1.40;;;6.00;99.90;;;;;;12609487;28;20048;-37
2022/02/16 02:23:57;;;;;;;2.67;1.48;;;6.00;99.90;;;;;;12605182;28;20105;-36
2022/02/16 02:29:59;;;;;;;2.28;1.35;;;6.00;99.90;;;;;;12610051;28;20057;-36
2022/02/16 02:36:03;;;;;;;2.58;1.23;;;6.00;99.90;;;;;;12613403;28;20051;-40
2022/02/16 02:42:05;;;;;;;2.23;1.33;;;6.10;99.90;;;;;;12609245;28;20074;-36
2022/02/16 02:48:07;;;;;;;2.85;1.25;;;6.10;99.90;;;;;;12605174;28;20121;-36
2022/02/16 02:54:09;;;;;;;2.72;1.20;;;6.10;99.90;;;;;;12613826;28;20068;-36
2022/02/16 03:00:12;;;;;;;2.30;1.10;;;6.10;99.90;;;;;;12619747;28;20552;-40
2022/02/16 03:06:14;;;;;;;3.85;1.30;;;6.10;99.90;;;;;;12616710;28;20104;-37
2022/02/16 03:12:16;;;;;;;2.72;1.27;;;6.10;99.90;;;;;;12615013;28;20054;-36
2022/02/16 03:18:20;;;;;;;2.20;1.05;;;6.10;99.90;;;;;;12615994;28;20089;-39
2022/02/16 03:24:22;;;;;;;2.70;1.17;;;6.10;99.90;;;;;;12613578;28;20105;-36
2022/02/16 03:30:24;;;;;;;1.40;1.10;;;6.20;99.90;;;;;;12614635;28;20086;-36
2022/02/16 03:36:44;;;;;;;3.42;1.25;;;6.20;99.90;;;;;;12613472;28;20492;-39
2022/02/16 03:42:46;;;;;;;1.95;1.38;;;6.30;99.90;;;;;;12608688;28;20048;-36
2022/02/16 03:48:48;;;;;;;1.60;1.10;;;6.40;99.90;;;;;;12608346;28;20497;-36
2022/02/16 03:54:50;;;;;;;2.38;1.20;;;6.40;99.90;;;;;;12592148;28;20553;-36
2022/02/16 04:00:51;;;;;;;3.05;1.23;;;6.50;99.90;;;;;;12611252;28;20570;-39
2022/02/16 04:06:53;;;;;;;2.72;1.13;;;6.50;99.90;;;;;;12616357;28;20052;-36
2022/02/16 04:12:55;;;;;;;1.58;0.90;;;6.50;99.90;;;;;;12610808;28;20039;-39
2022/02/16 04:18:57;;;;;;;2.53;0.93;;;6.60;99.90;;;;;;12611540;28;20567;-36
2022/02/16 04:24:59;;;;;;;1.33;0.90;;;6.50;99.90;;;;;;12609855;28;20089;-39
2022/02/16 04:31:02;;;;;;;1.13;0.80;;;6.60;99.90;;;;;;12611209;28;20046;-36
2022/02/16 04:37:04;;;;;;;2.33;1.00;;;6.50;99.90;;;;;;12621803;28;20113;-36
2022/02/16 04:43:06;;;;;;;3.10;1.20;;;6.50;99.90;;;;;;12620150;28;20070;-36
2022/02/16 04:49:08;;;;;;;1.55;1.00;;;6.50;99.90;;;;;;12620579;28;20067;-40
2022/02/16 04:55:11;;;;;;;2.15;1.00;;;6.60;99.90;;;;;;12621488;28;20044;-39
2022/02/16 05:01:14;;;;;;;2.70;1.53;;;6.60;99.90;;;;;;12623665;28;20143;-39
2022/02/16 05:07:16;;;;;;;3.47;1.48;;;6.60;99.90;;;;;;12624123;28;20092;-39
2022/02/16 05:13:18;;;;;;;2.55;1.38;;;6.70;99.90;;;;;;12624237;28;20131;-40
2022/02/16 05:19:20;;;;;;;2.45;1.42;;;6.80;99.90;;;;;;12624185;28;20492;-40
2022/02/16 05:25:22;;;;;;;2.72;1.35;;;6.80;99.90;;;;;;12622808;28;20048;-40
2022/02/16 05:31:23;;;;;;;1.73;1.25;;;6.80;99.90;;;;;;12624795;28;20097;-36
2022/02/16 05:37:26;;;;;;;2.42;1.30;;;6.80;99.90;;;;;;12621673;28;20713;-37
2022/02/16 05:43:29;;;;;;;3.07;1.30;;;6.90;99.90;;;;;;12619775;28;20104;-36
2022/02/16 05:49:32;;;;;;;1.80;1.23;;;6.90;99.90;;;;;;12621025;28;20051;-38
2022/02/16 05:55:33;;;;;;;3.47;1.30;;;6.90;99.90;;;;;;12620717;28;20149;-40
2022/02/16 06:01:35;;;;;;;3.63;1.40;;;6.90;99.90;;;;;;12622103;28;20161;-37
2022/02/16 06:07:37;;;;;;;2.05;1.20;;;6.90;99.90;;;;;;12622036;28;20138;-40
2022/02/16 06:13:39;;;;;;;3.03;1.25;;;7.00;99.90;;;;;;12621164;28;20071;-42
2022/02/16 06:19:41;;;;;;;1.92;1.20;;;7.00;99.90;;;;;;12617723;28;20055;-36
2022/02/16 06:25:43;;;;;;;2.33;1.20;;;7.00;99.90;;;;;;12617726;28;20060;-36
2022/02/16 06:31:45;;;;;;;2.42;1.15;;;7.10;99.90;;;;;;12613650;28;20059;-40
2022/02/16 06:37:50;;;;;;;5.55;1.30;;;7.10;99.90;;;;;;12617116;28;20445;-36
2022/02/16 06:43:52;;;;;;;2.42;1.00;;;7.20;99.90;;;;;;12615498;28;20093;-40
2022/02/16 06:49:54;;;;;;;1.52;1.00;;;7.30;99.90;;;;;;12616222;28;20076;-36
2022/02/16 06:55:56;;;;;;;1.23;0.85;;;7.20;99.90;;;;;;12609140;28;20040;-40
2022/02/16 07:01:58;;;;;;;1.50;0.80;;;7.20;99.90;;;;;;12619855;28;20116;-39
2022/02/16 07:08:00;;;;;;;1.27;0.75;;;7.10;99.90;;;;;;12619941;28;20048;-36
2022/02/16 07:14:03;;;;;;;1.55;0.70;;;7.10;99.90;;;;;;12624222;28;20100;-40
2022/02/16 07:20:10;;;;;;;1.23;0.40;;;7.10;99.90;;;;;;12622062;28;20048;-36
2022/02/16 07:26:13;;;;;;;2.67;0.60;;;7.20;99.90;;;;;;12625615;28;20104;-40
2022/02/16 07:32:15;;;;;;;1.13;0.52;;;7.20;99.90;;;;;;12616290;28;20052;-36
2022/02/16 07:38:17;;;;;;;0.93;0.30;;;7.30;99.90;;;;;;12600196;28;20460;-40
2022/02/16 07:44:19;;;;;;;1.08;0.40;;;7.30;99.90;;;;;;12615705;28;20051;-36
2022/02/16 07:50:22;;;;;;;0.52;0.30;;;7.30;99.90;;;;;;12612791;28;20063;-40
2022/02/16 07:56:24;;;;;;;0.70;0.50;;;7.40;99.90;;;;;;12615171;28;20075;-36
2022/02/16 08:02:26;;;;;;;0.40;0.40;;;7.50;99.90;;;;;;12619141;28;20112;-39
2022/02/16 08:08:28;;;;;;;1.60;0.40;;;7.50;99.90;;;;;;12619980;28;20055;-40
2022/02/16 08:14:33;;;;;;;0.32;0.22;;;7.60;99.90;;;;;;12613215;28;20662;-36
2022/02/16 08:20:35;;;;;;;1.42;0.50;;;7.70;99.90;;;;;;12614976;28;20060;-36
2022/02/16 08:26:37;;;;;;;1.77;0.40;;;7.70;99.90;;;;;;12616083;28;20142;-40
2022/02/16 08:32:40;;;;;;;1.20;0.50;;;7.70;99.90;;;;;;12615855;28;20104;-40
2022/02/16 08:38:43;;;;;;;0.73;0.50;;;7.60;99.90;;;;;;12614183;28;20110;-40
2022/02/16 08:44:45;;;;;;;1.20;0.55;;;7.60;99.90;;;;;;12614382;28;20465;-41
2022/02/16 08:50:47;;;;;;;1.92;0.57;;;7.50;99.90;;;;;;12619353;28;20473;-39
2022/02/16 08:56:50;;;;;;;1.50;0.70;;;7.60;99.90;;;;;;12601375;28;20113;-40
2022/02/16 09:10:18;;;;;;;1.67;0.73;;;7.80;99.90;;;;;;12576187;22;20781;-88
2022/02/16 09:16:20;;;;;;;1.63;0.70;;;7.90;99.90;;;;;;12519642;28;20042;-90
2022/02/16 09:22:24;;;;;;;2.40;0.80;;;7.90;99.90;;;;;;12505026;28;20052;-89
2022/02/16 09:28:25;;;;;;;1.85;0.75;;;8.00;99.90;;;;;;12493405;28;20467;-90
2022/02/16 09:34:28;;;;;;;3.38;0.80;;;8.00;99.90;;;;;;12510828;28;20086;-89
2022/02/16 09:40:33;;;;;;;1.65;0.77;;;8.10;99.90;;;;;;12502441;28;20049;-87
2022/02/16 09:46:35;;;;;;;1.23;0.80;;;8.10;99.90;;;;;;12533111;28;20060;-87
2022/02/16 09:52:40;;;;;;;1.88;0.93;;;8.20;99.90;;;;;;12488849;28;20049;-92
2022/02/16 09:58:42;;;;;;;1.73;1.00;;;8.30;99.90;;;;;;12530325;28;20051;-88
2022/02/16 10:04:57;;;;;;;1.92;0.98;;;8.40;99.90;;;;;;12523773;28;20052;-92
2022/02/16 10:11:00;;;;;;;3.45;1.17;;;8.50;99.90;;;;;;12526028;28;20045;-90
2022/02/16 10:17:17;;;;;;;2.53;1.10;;;8.60;99.90;;;;;;12521343;28;20049;-90
2022/02/16 10:23:40;;;;;;;1.95;1.30;;;8.60;99.90;;;;;;12509916;28;20494;-87
2022/02/16 10:29:45;;;;;;;;;;;8.70;99.90;;;;;;12493127;28;20125;-90
2022/02/16 10:35:57;;;;;;;3.20;2.40;;;8.80;99.90;;;;;;12494172;28;19933;-88
2022/02/16 10:42:01;;;;;;;4.25;2.50;;;8.90;99.90;;;;;;12506362;28;20056;-87
2022/02/16 10:48:05;;;;;;;4.00;3.17;;;9.00;99.90;;;;;;12515070;28;20365;-89
2022/02/16 10:54:12;;;;;;;4.45;2.88;;;9.00;99.90;;;;;;12497523;28;20806;-90
2022/02/16 11:00:17;;;;;;;3.90;3.17;;;9.00;99.90;;;;;;12508534;28;20088;-87
2022/02/16 11:06:20;;;;;;;5.35;3.40;;;9.10;99.90;;;;;;12517831;28;20268;-89
2022/02/16 11:12:23;;;;;;;4.18;3.47;;;9.20;99.90;;;;;;12496923;28;20068;-88
2022/02/16 11:18:30;;;;;;;4.00;3.50;;;9.30;99.90;;;;;;12505729;28;20053;-87
2022/02/16 11:24:44;;;;;;;5.70;4.20;;;9.30;99.90;;;;;;12527444;28;20049;-89
2022/02/16 11:30:48;;;;;;;5.22;4.25;;;9.40;99.90;;;;;;12505830;28;20555;-90
2022/02/16 11:36:56;;;;;;;6.38;4.38;;;9.40;99.90;;;;;;12514829;28;20067;-88
2022/02/16 11:43:00;;;;;;;6.28;5.68;;;9.50;99.90;;;;;;12519837;28;20073;-88
2022/02/16 11:49:05;;;;;;;6.78;5.47;;;9.50;99.90;;;;;;12507323;28;20052;-89
2022/02/16 11:55:34;;;;;;;5.75;5.05;;;9.60;99.90;;;;;;12514408;28;20041;-92
2022/02/16 12:02:05;;;;;;;6.85;5.68;;;9.60;99.90;;;;;;12524366;28;20055;-90
2022/02/16 12:08:14;;;;;;;7.82;5.93;;;9.60;99.90;;;;;;12521281;28;20064;-90
2022/02/16 12:14:19;;;;;;;7.68;6.28;;;9.70;99.90;;;;;;12502210;28;20123;-92
2022/02/16 12:20:25;;;;;;;8.30;6.32;;;9.80;99.90;;;;;;12501175;28;20155;-89
2022/02/16 12:26:38;;;;;;;7.28;6.50;;;9.80;99.90;;;;;;12493248;28;20139;-85
2022/02/16 12:32:48;;;;;;;7.88;6.68;;;9.90;99.90;;;;;;12498172;28;20433;-87
2022/02/16 12:38:53;;;;;;;7.57;6.50;;;10.00;99.90;;;;;;12490640;28;20753;-87
2022/02/16 12:45:03;;;;;;;7.80;6.95;;;10.00;99.90;;;;;;12490297;28;20109;-90
2022/02/16 12:51:08;;;;;;;8.68;7.07;;;10.00;99.90;;;;;;12492005;28;20053;-90
2022/02/16 12:57:24;;;;;;;9.35;7.82;;;10.10;99.90;;;;;;12519163;28;20041;-89
2022/02/16 13:03:29;;;;;;;9.23;7.85;;;10.10;99.90;;;;;;12517848;28;20483;-87
2022/02/16 13:09:31;;;;;;;10.45;8.75;;;10.20;99.90;;;;;;12524938;28;20092;-88
2022/02/16 13:15:36;;;;;;;11.65;9.15;;;10.30;99.90;;;;;;12523024;28;20131;-90
2022/02/16 13:22:01;;;;;;;10.43;9.30;;;10.30;99.90;;;;;;12519069;28;20048;-90
2022/02/16 13:28:06;;;;;;;8.95;7.97;;;10.30;99.90;;;;;;12533155;28;20114;-86
2022/02/16 13:34:11;;;;;;;9.83;7.93;;;10.30;99.90;;;;;;12525773;28;20048;-88
2022/02/16 13:40:13;;;;;;;9.90;7.53;;;10.40;99.90;;;;;;12524383;28;20068;-87
2022/02/16 13:46:18;;;;;;;8.15;7.15;;;10.40;99.90;;;;;;12520175;28;20413;-89
2022/02/16 13:52:30;;;;;;;9.27;7.28;;;10.50;99.90;;;;;;12524875;28;20044;-88
2022/02/16 13:58:34;;;;;;;7.32;6.63;;;10.50;99.90;;;;;;12509007;28;20053;-88
2022/02/16 14:04:54;;;;;;;7.07;6.38;;;10.60;99.90;;;;;;12541829;28;20053;-89
2022/02/16 14:10:56;;;;;;;7.90;6.93;;;10.60;99.90;;;;;;12534175;28;20560;-87
2022/02/16 14:16:59;;;;;;;7.07;6.32;;;10.60;99.90;;;;;;12522906;28;20079;-90
2022/02/16 14:23:01;;;;;;;7.72;6.07;;;10.60;99.90;;;;;;12521600;28;20080;-86
2022/02/16 14:29:04;;;;;;;6.72;5.65;;;10.60;99.90;;;;;;12522790;28;20049;-87
2022/02/16 14:35:07;;;;;;;5.93;4.72;;;10.70;99.90;;;;;;12538425;28;20409;-90
2022/02/16 14:41:11;;;;;;;6.10;4.20;;;10.80;99.90;;;;;;12525413;28;20053;-87
2022/02/16 14:47:13;;;;;;;7.90;4.00;;;10.90;99.90;;;;;;12528917;28;20049;-86
2022/02/16 14:53:15;;;;;;;5.93;4.00;;;11.10;99.90;;;;;;12482679;28;20037;-87
2022/02/16 14:59:17;;;;;;;5.95;3.92;;;11.10;99.90;;;;;;12494194;28;20084;-86
2022/02/16 15:05:20;;;;;;;5.78;4.07;;;11.20;99.90;;;;;;12466175;28;20095;-85
2022/02/16 15:11:22;;;;;;;8.20;4.55;;;11.10;99.90;;;;;;12487595;28;20048;-86
2022/02/16 15:17:24;;;;;;;7.95;4.10;;;11.00;99.90;;;;;;12524421;28;20553;-86
2022/02/16 15:23:26;;;;;;;8.65;4.65;;;11.00;99.90;;;;;;12516932;28;20052;-86
2022/02/16 15:29:29;;;;;;;8.55;4.53;;;11.10;99.90;;;;;;12514632;28;20584;-89
2022/02/16 15:35:35;;;;;;;8.55;4.35;;;11.20;99.90;;;;;;12513595;28;20049;-90
2022/02/16 15:41:38;;;;;;;9.80;4.15;;;11.10;99.90;;;;;;12507680;28;20050;-88
2022/02/16 15:47:41;;;;;;;12.70;5.00;;;11.10;99.90;;;;;;12526238;28;20056;-86
2022/02/16 15:53:43;;;;;;;7.85;4.68;;;11.00;99.90;;;;;;12514086;28;20084;-85
2022/02/16 15:59:45;;;;;;;9.32;4.80;;;11.00;99.90;;;;;;12495637;28;20179;-87
2022/02/16 16:05:48;;;;;;;9.40;4.93;;;11.00;99.90;;;;;;12519172;28;20044;-90
2022/02/16 16:11:51;;;;;;;8.45;5.15;;;11.00;99.90;;;;;;12433851;28;20049;-89
2022/02/16 16:17:53;;;;;;;13.18;5.50;;;10.90;99.90;;;;;;12461523;28;20064;-89
2022/02/16 16:23:55;;;;;;;12.93;5.32;;;10.90;99.90;;;;;;12436155;28;20060;-85
2022/02/16 16:30:00;;;;;;;9.57;5.07;;;11.00;99.90;;;;;;12441577;28;20053;-88
2022/02/16 16:36:02;;;;;;;15.45;5.80;;;11.00;99.90;;;;;;12455902;28;20060;-88
2022/02/16 16:42:05;;;;;;;16.85;6.30;;;11.00;99.90;;;;;;12446336;28;20045;-86
2022/02/16 16:48:07;;;;;;;14.15;6.35;;;11.00;99.90;;;;;;12465871;28;20077;-88
2022/02/16 16:54:10;;;;;;;18.10;6.45;;;11.00;99.90;;;;;;12485162;28;20395;-86
2022/02/16 17:00:17;;;;;;;15.63;6.15;;;11.00;99.90;;;;;;12460248;28;20046;-86
2022/02/16 17:06:20;;;;;;;19.20;5.18;;;11.00;99.90;;;;;;12443165;28;20060;-87
2022/02/16 17:12:23;;;;;;;20.60;4.90;;;11.00;99.90;;;;;;12546681;28;20057;-86
2022/02/16 17:18:25;;;;;;;21.27;6.07;;;11.00;99.90;;;;;;12502764;28;20053;-86
2022/02/16 17:24:28;;;;;;;21.70;7.32;;;10.90;99.90;;;;;;12498097;28;20520;-87
2022/02/16 17:30:30;;;;;;;16.08;6.70;;;10.70;99.90;;;;;;12518920;28;20045;-85
2022/02/16 17:36:33;;;;;;;20.27;6.47;;;10.80;99.90;;;;;;12545924;28;20028;-89
2022/02/16 17:42:36;;;;;;;21.10;6.32;;;10.80;99.90;;;;;;12547250;28;20053;-86
2022/02/16 17:48:38;;;;;;;21.77;6.53;;;10.80;99.90;;;;;;12535087;28;20045;-90
2022/02/16 17:54:46;;;;;;;19.95;5.57;;;10.80;99.90;;;;;;12549239;28;20500;-87
2022/02/16 18:01:10;;;;;;;16.85;5.80;;;10.80;99.90;;;;;;12521678;28;20064;-84
2022/02/16 18:07:12;;;;;;;21.85;5.60;;;10.70;99.90;;;;;;12530134;28;20053;-86
2022/02/16 18:13:16;;;;;;;20.38;4.28;;;10.70;99.90;;;;;;12524712;28;20100;-90
2022/02/16 18:19:19;;;;;;;21.75;4.60;;;10.60;99.90;;;;;;12520636;28;21545;-87
2022/02/16 18:25:22;;;;;;;18.45;4.43;;;10.50;99.90;;;;;;12491254;28;20091;-87
2022/02/16 18:31:25;;;;;;;17.30;4.65;;;10.40;99.90;;;;;;12519077;28;20068;-89
2022/02/16 18:37:28;;;;;;;20.33;5.47;;;10.40;99.90;;;;;;12515018;28;20113;-89
2022/02/16 18:43:31;;;;;;;25.10;4.50;;;10.30;99.90;;;;;;12517269;28;20819;-89
2022/02/16 18:49:33;;;;;;;20.17;3.90;;;10.30;99.90;;;;;;12521654;28;20060;-87
2022/02/16 18:55:35;;;;;;;16.13;4.32;;;10.40;99.90;;;;;;12517573;28;20136;-90
2022/02/16 19:01:42;;;;;;;16.52;4.32;;;10.40;99.90;;;;;;12532271;28;20048;-88
2022/02/16 19:07:45;;;;;;;18.40;4.80;;;10.40;99.90;;;;;;12520763;28;20165;-87
2022/02/16 19:13:48;;;;;;;17.58;4.85;;;10.30;99.90;;;;;;12502452;28;20071;-88
2022/02/16 19:19:51;;;;;;;15.80;4.90;;;10.40;99.90;;;;;;12528850;28;20041;-90
2022/02/16 19:25:54;;;;;;;11.40;3.75;;;10.30;99.90;;;;;;12529183;28;20398;-88
2022/02/16 19:31:59;;;;;;;11.13;4.10;;;10.30;99.90;;;;;;12516283;28;20068;-88
2022/02/16 19:38:02;;;;;;;8.35;3.78;;;10.30;99.90;;;;;;12515336;28;20065;-91
2022/02/16 19:44:06;;;;;;;9.77;3.97;;;10.30;99.90;;;;;;12508209;28;20203;-90
2022/02/16 19:50:10;;;;;;;12.60;3.95;;;10.40;99.90;;;;;;12506521;28;20678;-91
2022/02/16 19:56:13;;;;;;;9.32;4.20;;;10.60;99.90;;;;;;12513918;28;20073;-91
2022/02/16 20:02:18;;;;;;;9.50;3.53;;;10.70;99.90;;;;;;12509647;28;20541;-91
2022/02/16 20:08:20;;;;;;;6.88;3.78;;;10.80;99.90;;;;;;12521064;28;20053;-91
2022/02/16 20:14:22;;;;;;;6.68;3.33;;;10.90;99.90;;;;;;12524824;28;20060;-88
2022/02/16 20:20:24;;;;;;;5.47;3.45;;;11.10;99.90;;;;;;12514814;28;20048;-84
2022/02/16 20:26:26;;;;;;;5.28;3.13;;;11.30;99.90;;;;;;12514621;28;20123;-88
2022/02/16 20:32:29;;;;;;;5.80;3.28;;;11.30;99.90;;;;;;12503279;28;20670;-88
2022/02/16 20:38:31;;;;;;;5.05;3.70;;;11.40;99.90;;;;;;12521152;28;20432;-88
2022/02/16 20:44:33;;;;;;;5.50;3.88;;;11.30;99.90;;;;;;12536431;28;20510;-87
2022/02/16 20:50:35;;;;;;;4.63;3.65;;;11.50;99.90;;;;;;12508653;28;20080;-87
2022/02/16 20:56:37;;;;;;;5.00;3.50;;;11.60;99.90;;;;;;12525498;28;20128;-86
2022/02/16 21:02:39;;;;;;;5.40;3.80;;;11.60;99.90;;;;;;12509404;28;20076;-88
2022/02/16 21:08:41;;;;;;;5.85;2.90;;;11.70;99.90;;;;;;12494660;28;20111;-85
2022/02/16 21:14:43;;;;;;;4.90;3.50;;;11.80;99.90;;;;;;12512718;28;20162;-88
2022/02/16 21:20:46;;;;;;;5.65;2.92;;;11.90;99.90;;;;;;12524990;28;20060;-84
2022/02/16 21:26:48;;;;;;;3.95;2.25;;;11.90;99.90;;;;;;12525392;28;20048;-89
2022/02/16 21:32:53;;;;;;;3.65;2.42;;;11.90;99.90;;;;;;12501259;28;20084;-89
2022/02/16 21:39:01;;;;;;;3.25;2.00;;;11.90;99.90;;;;;;12526599;28;20056;-84
2022/02/16 21:45:05;;;;;;;2.30;1.67;;;11.90;99.90;;;;;;12519586;28;20132;-82
2022/02/16 21:51:07;;;;;;;2.15;1.42;;;12.00;99.90;;;;;;12516413;28;20133;-86
2022/02/16 21:57:10;;;;;;;1.42;1.20;;;12.00;99.90;;;;;;12518428;28;20053;-84
2022/02/16 22:03:13;;;;;;;2.50;1.40;;;12.00;99.90;;;;;;12515773;28;20403;-87
2022/02/16 22:09:15;;;;;;;1.92;1.00;;;12.00;99.90;;;;;;12522989;28;20531;-87
2022/02/16 22:15:22;;;;;;;3.03;0.85;;;12.00;99.90;;;;;;12513503;28;20068;-85
2022/02/16 22:21:25;;;;;;;2.22;0.65;;;12.10;99.90;;;;;;12534109;28;20611;-84
2022/02/16 22:27:27;;;;;;;1.23;0.38;;;12.00;99.90;;;;;;12524067;28;20049;-85
2022/02/16 22:33:29;;;;;;;1.35;0.43;;;11.70;99.90;;;;;;12520917;28;20045;-86
2022/02/16 22:39:32;;;;;;;3.33;0.40;;;11.50;99.90;;;;;;12518323;28;20064;-89
2022/02/16 22:45:36;;;;;;;1.67;0.30;;;11.40;99.90;;;;;;12517310;28;20072;-84
2022/02/16 22:51:39;;;;;;;2.20;0.32;;;11.70;99.90;;;;;;12517646;28;20048;-83
2022/02/16 22:57:41;;;;;;;0.68;0.30;;;12.00;99.90;;;;;;12523838;28;20069;-87
2022/02/16 23:03:43;;;;;;;1.83;0.43;;;12.00;99.90;;;;;;12535925;28;20050;-85
2022/02/16 23:10:30;;;;;;;2.75;0.52;;;11.80;99.90;;;;;;12535782;28;20065;-84
2022/02/16 23:16:17;;;;;;;0.68;0.35;;;11.70;99.90;;;;;;12534307;28;20107;-84
2022/02/16 23:22:19;;;;;;;1.13;0.40;;;11.50;99.90;;;;;;12473491;28;20067;-83
2022/02/16 23:28:21;;;;;;;3.33;0.50;;;11.20;99.90;;;;;;12518644;28;20048;-85
2022/02/16 23:34:23;;;;;;;1.75;0.50;;;11.00;99.90;;;;;;12531785;28;20041;-84
2022/02/16 23:40:25;;;;;;;0.77;0.38;;;11.00;99.90;;;;;;12525755;28;20052;-83
2022/02/16 23:46:29;;;;;;;2.28;0.75;;;11.00;99.90;;;;;;12525901;28;20060;-85
2022/02/16 23:52:31;;;;;;;4.25;0.65;;;11.20;99.90;;;;;;12527628;28;20080;-84
2022/02/16 23:58:33;;;;;;;3.72;0.65;;;11.30;99.90;;;;;;12515476;28;20041;-84
